Time;durP1;ratioP1;P1;durP2;ratioP2;P2;SDS_P1;SDS_P2;PMS_P1;PMS_P2;Temp;Humidity;BMP_temperature;BMP_pressure;BME280_temperature;BME280_humidity;BME280_pressure;Samples;Min_cycle;Max_cycle;Signal;HPM_P1;HPM_P2
2021/06/22 00:00:35;;;;;;;2.92;1.10;;;;;;;19.84;62.33;99715.59;10535001;28;20059;-50
2021/06/22 00:05:37;;;;;;;1.33;0.85;;;;;;;19.36;62.92;99738.66;10534711;28;20040;-50
2021/06/22 00:10:38;;;;;;;2.60;0.70;;;;;;;19.16;64.56;99772.72;10535060;28;20063;-56
2021/06/22 00:15:40;;;;;;;1.92;0.93;;;;;;;19.42;64.27;99764.84;10533263;28;20050;-50
2021/06/22 00:20:42;;;;;;;1.08;0.90;;;;;;;19.68;63.56;99758.06;10534194;28;20048;-51
2021/06/22 00:25:44;;;;;;;2.03;0.50;;;;;;;19.85;61.15;99742.41;10529251;28;20054;-50
2021/06/22 00:30:45;;;;;;;1.00;0.68;;;;;;;19.99;60.50;99726.31;10518617;28;20075;-50
2021/06/22 00:35:47;;;;;;;0.70;0.30;;;;;;;19.73;60.77;99736.69;10536485;28;20052;-50
2021/06/22 00:40:48;;;;;;;1.45;0.50;;;;;;;19.78;61.06;99736.94;10535818;28;20047;-50
2021/06/22 00:45:50;;;;;;;1.38;0.20;;;;;;;19.86;60.23;99721.63;10545417;28;20043;-51
2021/06/22 00:50:51;;;;;;;0.60;0.30;;;;;;;19.92;60.05;99699.22;10544663;28;20131;-51
2021/06/22 00:55:54;;;;;;;1.30;0.30;;;;;;;19.77;61.17;99699.31;10542483;28;20408;-50
2021/06/22 01:00:59;;;;;;;1.40;0.20;;;;;;;19.69;60.93;99696.78;10547162;28;24484;-50
2021/06/22 01:06:01;;;;;;;0.20;0.20;;;;;;;19.53;60.26;99652.00;10543521;28;20047;-50
2021/06/22 01:11:03;;;;;;;0.55;0.20;;;;;;;19.73;59.40;99669.19;10526937;28;20052;-50
2021/06/22 01:16:05;;;;;;;0.90;0.20;;;;;;;19.72;60.86;99662.09;10546961;28;20130;-50
2021/06/22 01:21:06;;;;;;;0.73;0.40;;;;;;;19.48;61.77;99654.47;10543070;28;20059;-50
2021/06/22 01:26:10;;;;;;;0.40;0.20;;;;;;;19.57;60.83;99653.28;10543397;28;20043;-50
2021/06/22 01:31:12;;;;;;;0.47;0.10;;;;;;;19.59;60.10;99662.00;10541277;28;20772;-50
2021/06/22 01:36:14;;;;;;;0.47;0.20;;;;;;;19.59;60.17;99662.00;10540254;28;20040;-50
2021/06/22 01:41:15;;;;;;;0.32;0.13;;;;;;;19.52;60.41;99663.84;10537231;28;20059;-50
2021/06/22 01:46:17;;;;;;;0.10;0.00;;;;;;;19.27;61.19;99680.44;10538379;28;21424;-50
2021/06/22 01:51:20;;;;;;;0.65;0.10;;;;;;;19.37;61.16;99664.75;10543561;28;20067;-51
2021/06/22 01:56:23;;;;;;;0.35;0.08;;;;;;;19.47;59.74;99663.59;10536939;28;20058;-50
2021/06/22 02:01:25;;;;;;;1.27;0.10;;;;;;;19.30;60.39;99644.97;10545919;28;20051;-50
2021/06/22 02:06:26;;;;;;;0.20;0.10;;;;;;;19.23;60.84;99661.13;10540498;28;20062;-49
2021/06/22 02:11:28;;;;;;;0.63;0.10;;;;;;;19.20;60.91;99669.63;10543462;28;20516;-50
2021/06/22 02:16:31;;;;;;;0.50;0.10;;;;;;;18.93;61.07;99695.50;10522240;28;20060;-52
2021/06/22 02:21:32;;;;;;;1.15;0.10;;;;;;;18.64;62.59;99716.06;10539738;27;20059;-50
2021/06/22 02:26:34;;;;;;;0.30;0.10;;;;;;;18.88;62.25;99716.78;10541764;27;20099;-49
2021/06/22 02:31:36;;;;;;;0.20;0.00;;;;;;;19.08;61.50;99723.25;10536093;28;20047;-49
2021/06/22 02:36:37;;;;;;;0.32;0.20;;;;;;;19.01;61.17;99727.72;10544445;28;20058;-49
2021/06/22 02:41:39;;;;;;;0.82;0.10;;;;;;;18.87;61.41;99742.94;10543802;28;20060;-50
2021/06/22 02:46:40;;;;;;;0.43;0.10;;;;;;;18.90;61.02;99729.06;10539888;28;20487;-51
2021/06/22 02:51:42;;;;;;;0.30;0.10;;;;;;;18.89;60.93;99738.19;10536763;28;20059;-50
2021/06/22 02:56:44;;;;;;;0.17;0.10;;;;;;;18.73;61.72;99730.28;10541040;28;20055;-50
2021/06/22 03:01:45;;;;;;;0.20;0.10;;;;;;;18.77;62.04;99741.53;10535499;28;20051;-50
2021/06/22 03:06:47;;;;;;;0.20;0.10;;;;;;;18.83;62.05;99738.09;10535472;28;20054;-51
2021/06/22 03:11:50;;;;;;;0.10;0.10;;;;;;;18.77;61.54;99719.97;10539389;28;20051;-50
2021/06/22 03:16:52;;;;;;;0.33;0.10;;;;;;;18.89;62.14;99748.13;10535952;28;20043;-49
2021/06/22 03:21:55;;;;;;;0.55;0.10;;;;;;;18.89;61.41;99738.19;10541319;28;20047;-50
2021/06/22 03:26:56;;;;;;;0.63;0.10;;;;;;;18.93;61.13;99727.88;10544959;28;20053;-50
2021/06/22 03:31:58;;;;;;;0.70;0.13;;;;;;;18.89;61.39;99727.41;10533505;28;20040;-50
2021/06/22 03:37:00;;;;;;;1.05;0.10;;;;;;;18.80;61.37;99733.06;10538850;28;20044;-52
2021/06/22 03:42:03;;;;;;;0.70;0.10;;;;;;;18.80;61.87;99736.59;10527126;28;20039;-50
2021/06/22 03:47:04;;;;;;;0.10;0.10;;;;;;;18.80;61.27;99722.28;10527152;28;20040;-50
2021/06/22 03:52:06;;;;;;;1.00;0.10;;;;;;;18.86;60.73;99735.88;10526412;28;20559;-50
2021/06/22 03:57:07;;;;;;;0.40;0.10;;;;;;;18.63;60.70;99741.38;10531440;28;20464;-50
2021/06/22 04:02:09;;;;;;;0.65;0.17;;;;;;;18.51;61.29;99751.81;10531448;28;20044;-60
2021/06/22 04:07:11;;;;;;;0.13;0.00;;;;;;;18.43;61.61;99748.38;10537156;28;20457;-61
2021/06/22 04:12:12;;;;;;;1.60;0.10;;;;;;;18.23;61.99;99743.53;10535103;28;20044;-61
2021/06/22 04:17:14;;;;;;;0.28;0.05;;;;;;;18.16;61.09;99754.22;10534640;28;20067;-61
2021/06/22 04:22:16;;;;;;;0.75;0.03;;;;;;;18.05;61.39;99748.47;10549888;28;20046;-61
2021/06/22 04:27:17;;;;;;;0.10;0.00;;;;;;;17.94;62.47;99736.28;10548641;28;20560;-61
2021/06/22 04:32:19;;;;;;;0.60;0.10;;;;;;;18.01;61.45;99721.06;10540516;28;20054;-61
2021/06/22 04:37:20;;;;;;;2.28;0.17;;;;;;;18.17;61.61;99765.84;10540777;28;20713;-61
2021/06/22 04:42:22;;;;;;;0.63;0.00;;;;;;;18.29;60.79;99769.75;10541035;28;20052;-61
2021/06/22 04:47:24;;;;;;;0.10;0.10;;;;;;;18.37;60.92;99785.81;10545206;28;20562;-60
2021/06/22 04:52:25;;;;;;;0.55;0.38;;;;;;;18.54;61.10;99777.56;10539233;28;20407;-61
2021/06/22 04:57:27;;;;;;;0.10;0.00;;;;;;;18.67;60.25;99783.09;10548400;28;20174;-59
2021/06/22 05:02:29;;;;;;;0.30;0.13;;;;;;;18.70;60.39;99771.94;10513992;27;20054;-60
2021/06/22 05:07:30;;;;;;;0.47;0.10;;;;;;;18.60;60.51;99786.72;10543473;28;20062;-63
2021/06/22 05:12:32;;;;;;;0.85;0.13;;;;;;;18.64;60.62;99783.47;10535802;28;20131;-60
2021/06/22 05:17:34;;;;;;;0.95;0.22;;;;;;;18.70;60.54;99798.06;10542450;28;20036;-60
2021/06/22 05:22:35;;;;;;;0.28;0.13;;;;;;;18.81;60.50;99811.06;10543370;28;20516;-60
2021/06/22 05:27:37;;;;;;;0.90;0.25;;;;;;;18.83;61.02;99819.81;10539955;28;20055;-60
2021/06/22 05:32:38;;;;;;;1.73;0.20;;;;;;;18.90;60.85;99815.38;10539420;28;20157;-60
2021/06/22 05:37:40;;;;;;;3.47;0.22;;;;;;;18.93;59.89;99819.56;10538738;28;20048;-62
2021/06/22 05:42:42;;;;;;;1.75;0.75;;;;;;;18.77;60.21;99814.34;10529661;28;20536;-61
2021/06/22 05:47:43;;;;;;;0.50;0.25;;;;;;;18.75;60.39;99816.38;10519842;28;20151;-62
2021/06/22 05:52:46;;;;;;;1.55;0.20;;;;;;;18.96;59.99;99821.88;10539117;28;20047;-60
2021/06/22 05:57:53;;;;;;;2.50;0.60;;;;;;;19.03;60.76;99828.16;10530628;28;20044;-60
2021/06/22 06:02:55;;;;;;;2.72;0.45;;;;;;;19.04;59.60;99813.66;10517648;28;20052;-61
2021/06/22 06:07:56;;;;;;;0.93;0.35;;;;;;;19.06;59.85;99825.06;10526802;28;20054;-61
2021/06/22 06:12:58;;;;;;;0.73;0.20;;;;;;;18.99;60.62;99826.88;10528937;28;20512;-61
2021/06/22 06:18:00;;;;;;;1.17;0.10;;;;;;;19.27;59.62;99825.31;10525471;28;20547;-61
2021/06/22 06:23:02;;;;;;;2.17;0.25;;;;;;;19.52;58.82;99802.34;10503720;28;20047;-61
2021/06/22 06:28:12;;;;;;;1.30;0.25;;;;;;;19.74;57.88;99824.78;10525460;28;20089;-60
2021/06/22 06:33:14;;;;;;;0.40;0.20;;;;;;;19.59;58.45;99822.13;10524751;27;20526;-60
2021/06/22 06:38:15;;;;;;;1.52;0.20;;;;;;;19.88;58.19;99806.84;10524297;28;20051;-61
2021/06/22 06:43:17;;;;;;;1.23;0.20;;;;;;;20.09;56.31;99822.16;10526054;28;20059;-61
2021/06/22 06:48:19;;;;;;;1.38;0.32;;;;;;;20.06;56.64;99814.47;10512715;28;20476;-61
2021/06/22 06:53:20;;;;;;;0.55;0.20;;;;;;;20.48;55.69;99823.47;10530662;28;20063;-61
2021/06/22 06:58:22;;;;;;;1.00;0.20;;;;;;;20.52;54.30;99832.00;10509432;28;20047;-61
2021/06/22 07:03:23;;;;;;;0.73;0.22;;;;;;;20.28;55.30;99830.59;10510789;28;20621;-61
2021/06/22 07:08:25;;;;;;;1.30;0.20;;;;;;;20.26;54.69;99824.56;10527468;28;20047;-62
2021/06/22 07:13:26;;;;;;;2.42;0.30;;;;;;;20.82;54.22;99856.97;10507065;28;20055;-61
2021/06/22 07:18:32;;;;;;;1.77;0.15;;;;;;;20.94;53.88;99851.84;10530068;28;20055;-60
2021/06/22 07:23:33;;;;;;;1.50;0.22;;;;;;;20.86;53.77;99851.16;10529098;28;20047;-62
2021/06/22 07:28:35;;;;;;;2.10;0.20;;;;;;;21.21;53.76;99848.38;10518803;28;20108;-61
2021/06/22 07:33:37;;;;;;;2.25;0.22;;;;;;;21.49;51.94;99849.09;10534174;28;20060;-61
2021/06/22 07:38:38;;;;;;;1.08;0.20;;;;;;;21.37;53.04;99853.44;10530710;28;20051;-61
2021/06/22 07:43:40;;;;;;;1.95;0.32;;;;;;;21.47;52.20;99848.47;10510733;28;21450;-62
2021/06/22 07:48:42;;;;;;;2.28;0.50;;;;;;;21.58;51.13;99859.78;10530001;28;20057;-63
2021/06/22 07:53:43;;;;;;;12.70;11.45;;;;;;;21.69;51.69;99853.72;10519721;28;20047;-60
2021/06/22 07:58:45;;;;;;;1.45;0.35;;;;;;;21.75;51.26;99850.19;10521983;27;20062;-61
2021/06/22 08:03:47;;;;;;;0.68;0.13;;;;;;;21.95;51.23;99857.50;10535927;28;20051;-61
2021/06/22 08:08:48;;;;;;;1.50;0.20;;;;;;;21.93;51.64;99856.88;10534667;28;20637;-61
2021/06/22 08:13:50;;;;;;;2.70;0.25;;;;;;;21.91;51.30;99846.25;10537069;28;20054;-61
2021/06/22 08:18:51;;;;;;;1.77;0.40;;;;;;;21.77;52.12;99864.38;10540384;28;20048;-62
2021/06/22 08:23:53;;;;;;;2.65;0.30;;;;;;;22.16;50.66;99862.75;10538552;28;20408;-61
2021/06/22 08:28:54;;;;;;;2.33;0.38;;;;;;;21.88;51.10;99855.63;10537944;28;20056;-60
2021/06/22 08:33:56;;;;;;;1.02;0.32;;;;;;;22.00;51.10;99860.44;10536740;28;20051;-62
2021/06/22 08:38:57;;;;;;;3.65;2.08;;;;;;;22.00;51.63;99863.16;10537066;28;20060;-62
2021/06/22 08:44:03;;;;;;;0.40;0.30;;;;;;;22.00;51.23;99874.00;10535265;28;20054;-62
2021/06/22 08:49:05;;;;;;;0.90;0.30;;;;;;;22.00;50.55;99868.56;10533154;28;20043;-61
2021/06/22 08:54:10;;;;;;;0.80;0.32;;;;;;;21.80;51.98;99869.41;10532462;28;20103;-61
2021/06/22 08:59:12;;;;;;;0.40;0.20;;;;;;;21.86;51.80;99871.28;10535793;28;20055;-61
2021/06/22 09:04:15;;;;;;;1.92;0.47;;;;;;;21.84;52.33;99872.50;10505475;28;20058;-61
2021/06/22 09:09:17;;;;;;;1.95;0.40;;;;;;;21.71;52.67;99860.63;10515094;28;20043;-62
2021/06/22 09:14:18;;;;;;;1.30;0.50;;;;;;;22.07;51.80;99867.53;10534965;28;20044;-60
2021/06/22 09:19:24;;;;;;;0.85;0.30;;;;;;;21.72;52.58;99861.44;10538121;28;20403;-61
2021/06/22 09:24:25;;;;;;;0.65;0.20;;;;;;;21.84;52.20;99861.66;10538752;28;20047;-61
2021/06/22 09:29:42;;;;;;;;;;;;;;;22.15;51.47;99865.66;10534414;28;20062;-62
2021/06/22 09:34:43;;;;;;;0.47;0.20;;;;;;;22.13;52.10;99876.72;10535255;28;19934;-62
2021/06/22 09:39:46;;;;;;;1.27;0.30;;;;;;;22.28;52.24;99864.78;10537843;28;20043;-63
2021/06/22 09:44:48;;;;;;;;;;;;;;;22.40;51.73;99861.28;10532511;28;20055;-61
2021/06/22 09:49:49;;;;;;;0.68;0.20;;;;;;;22.72;50.64;99863.31;10533250;28;19945;-61
2021/06/22 09:54:52;;;;;;;0.90;0.30;;;;;;;22.75;50.86;99874.56;10515913;28;20074;-61
2021/06/22 10:00:07;;;;;;;1.98;0.40;;;;;;;22.61;51.50;99872.94;10535493;28;20055;-62
2021/06/22 10:05:08;;;;;;;0.90;0.40;;;;;;;22.57;51.58;99869.81;10530225;28;20044;-62
2021/06/22 10:10:13;;;;;;;0.90;0.63;;;;;;;22.40;52.28;99879.44;10530948;28;20079;-60
2021/06/22 10:15:15;;;;;;;2.85;0.68;;;;;;;22.37;51.87;99882.56;10529428;27;20162;-62
2021/06/22 10:20:16;;;;;;;0.63;0.40;;;;;;;22.31;52.65;99886.06;10529906;28;20065;-62
2021/06/22 10:25:19;;;;;;;0.93;0.70;;;;;;;22.24;52.98;99881.47;10529520;28;20054;-63
2021/06/22 10:30:22;;;;;;;0.50;0.38;;;;;;;22.47;52.75;99896.50;10508322;28;20050;-63
2021/06/22 10:35:24;;;;;;;0.83;0.70;;;;;;;22.74;52.01;99885.63;10529982;28;20066;-62
2021/06/22 10:40:29;;;;;;;0.75;0.40;;;;;;;22.40;52.31;99882.16;10526713;28;20702;-63
2021/06/22 10:45:31;;;;;;;2.88;1.23;;;;;;;23.08;50.54;99881.75;10508170;28;20420;-62
2021/06/22 10:50:32;;;;;;;0.85;0.47;;;;;;;23.22;50.82;99889.88;10528475;28;20594;-62
2021/06/22 10:55:36;;;;;;;1.63;0.88;;;;;;;23.45;50.16;99892.09;10531889;28;20056;-62
2021/06/22 11:00:41;;;;;;;1.50;0.55;;;;;;;23.53;49.73;99904.59;10533170;28;20446;-62
2021/06/22 11:05:43;;;;;;;2.30;0.52;;;;;;;22.36;52.61;99878.19;10509810;28;20131;-62
2021/06/22 11:10:47;;;;;;;0.80;0.40;;;;;;;22.78;51.45;99908.56;10513581;28;20070;-63
2021/06/22 11:15:51;;;;;;;0.63;0.50;;;;;;;23.40;50.62;99900.03;10528857;28;20051;-62
2021/06/22 11:20:53;;;;;;;1.63;0.50;;;;;;;23.86;49.48;99903.59;10532816;28;20044;-61
2021/06/22 11:26:04;;;;;;;1.10;0.40;;;;;;;23.73;48.97;99888.97;10531181;28;20380;-62
2021/06/22 11:31:05;;;;;;;3.28;0.50;;;;;;;24.20;47.65;99891.41;10532811;28;20168;-66
2021/06/22 11:36:26;;;;;;;0.80;0.77;;;;;;;24.34;47.83;99897.56;10517614;28;20539;-62
2021/06/22 11:41:27;;;;;;;2.35;0.63;;;;;;;24.55;46.93;99888.16;10529694;28;20055;-63
2021/06/22 11:46:30;;;;;;;0.95;0.40;;;;;;;23.97;48.50;99887.38;10531554;28;20413;-63
2021/06/22 11:51:47;;;;;;;0.90;0.75;;;;;;;23.56;49.64;99885.13;10523279;28;20052;-63
2021/06/22 11:56:48;;;;;;;0.63;0.40;;;;;;;23.15;50.13;99892.63;10508045;28;20078;-62
2021/06/22 12:01:50;;;;;;;2.00;0.60;;;;;;;22.52;51.44;99891.31;10530732;28;20994;-61
2021/06/22 12:06:52;;;;;;;0.82;0.47;;;;;;;22.16;52.41;99889.00;10529926;28;20051;-61
2021/06/22 12:11:55;;;;;;;1.58;0.60;;;;;;;22.30;52.62;99889.84;10529411;28;20057;-61
2021/06/22 12:16:57;;;;;;;0.73;0.47;;;;;;;22.25;52.34;99891.28;10525316;28;20604;-62
2021/06/22 12:22:00;;;;;;;0.70;0.70;;;;;;;22.27;52.90;99892.97;10510012;28;20421;-62
2021/06/22 12:27:02;;;;;;;1.70;0.80;;;;;;;22.13;54.42;99900.25;10528410;28;20056;-61
2021/06/22 12:32:08;;;;;;;1.23;0.90;;;;;;;22.13;54.66;99901.09;10530038;28;20484;-61
2021/06/22 12:37:24;;;;;;;0.50;0.40;;;;;;;21.96;55.06;99914.19;10531693;28;20122;-61
2021/06/22 12:42:27;;;;;;;1.67;1.27;;;;;;;21.44;54.53;99915.72;10533077;28;20054;-61
2021/06/22 12:47:28;;;;;;;3.53;0.68;;;;;;;21.27;57.00;99917.94;10534667;28;20208;-61
2021/06/22 12:52:33;;;;;;;1.40;0.90;;;;;;;21.48;58.22;99919.69;10536121;28;20058;-61
2021/06/22 12:57:34;;;;;;;4.45;1.20;;;;;;;21.53;61.09;99918.06;10538616;28;20445;-62
2021/06/22 13:02:36;;;;;;;3.30;1.10;;;;;;;21.16;63.91;99920.19;10534679;28;20547;-62
2021/06/22 13:07:46;;;;;;;2.85;1.05;;;;;;;21.09;64.11;99918.47;10536584;28;20594;-62
2021/06/22 13:12:50;;;;;;;3.63;1.63;;;;;;;20.90;66.41;99926.31;10509960;28;20051;-63
2021/06/22 13:17:54;;;;;;;;;;;;;;;21.08;65.28;99914.97;10515669;28;20058;-62
2021/06/22 13:23:03;;;;;;;2.90;1.25;;;;;;;21.13;64.47;99914.34;10534551;28;28247;-62
2021/06/22 13:28:16;;;;;;;2.58;1.23;;;;;;;21.36;64.53;99917.59;10534201;28;20424;-62
2021/06/22 13:33:21;;;;;;;2.23;1.20;;;;;;;21.64;63.48;99935.59;10537370;28;20051;-63
2021/06/22 13:38:28;;;;;;;2.75;1.27;;;;;;;21.16;66.32;99936.41;10534560;28;20060;-61
2021/06/22 13:43:42;;;;;;;2.63;1.17;;;;;;;21.27;66.37;99945.88;10533618;28;20048;-61
2021/06/22 13:48:49;;;;;;;2.75;1.52;;;;;;;21.08;65.46;99947.44;10531818;28;20051;-63
2021/06/22 13:54:02;;;;;;;3.95;1.38;;;;;;;20.43;67.15;99949.44;10512495;28;21072;-61
2021/06/22 13:59:04;;;;;;;2.10;1.57;;;;;;;20.29;68.94;99946.63;10533079;28;20050;-62
2021/06/22 14:04:06;;;;;;;2.47;1.23;;;;;;;19.99;68.70;99959.44;10510701;28;20048;-62
2021/06/22 14:09:07;;;;;;;3.00;1.75;;;;;;;20.30;68.28;99952.88;10530502;28;20056;-62
2021/06/22 14:14:10;;;;;;;2.47;1.83;;;;;;;20.44;68.91;99953.81;10533031;28;20553;-62
2021/06/22 14:19:14;;;;;;;1.97;1.77;;;;;;;20.45;68.21;99950.91;10531870;28;20036;-62
2021/06/22 14:24:16;;;;;;;4.35;1.77;;;;;;;20.49;67.90;99954.91;10511849;28;20634;-62
2021/06/22 14:29:17;;;;;;;3.70;2.00;;;;;;;20.48;68.23;99953.22;10531091;28;20048;-63
2021/06/22 14:34:19;;;;;;;2.33;1.80;;;;;;;20.63;66.83;99955.03;10529362;28;20050;-63
2021/06/22 14:39:22;;;;;;;1.75;1.58;;;;;;;20.72;66.69;99980.91;10514280;28;20055;-62
2021/06/22 14:44:23;;;;;;;2.35;1.60;;;;;;;20.77;67.91;99983.03;10530606;28;20043;-62
2021/06/22 14:49:25;;;;;;;2.33;2.03;;;;;;;20.90;67.29;99987.69;10528847;28;20391;-62
2021/06/22 14:54:27;;;;;;;5.10;1.75;;;;;;;20.88;66.34;99978.94;10528655;28;20081;-63
2021/06/22 14:59:28;;;;;;;5.22;2.38;;;;;;;20.67;68.13;99991.47;10512201;28;20092;-63
2021/06/22 15:04:30;;;;;;;2.58;2.38;;;;;;;20.68;66.71;99970.69;10529802;28;20058;-62
2021/06/22 15:09:31;;;;;;;2.65;2.03;;;;;;;20.66;67.42;99992.50;10526132;28;20625;-61
2021/06/22 15:14:33;;;;;;;2.42;2.20;;;;;;;20.62;67.47;99997.44;10514003;28;20044;-60
2021/06/22 15:19:34;;;;;;;4.30;2.30;;;;;;;20.66;66.64;99997.91;10527798;28;20062;-62
2021/06/22 15:24:36;;;;;;;4.50;2.50;;;;;;;20.57;67.84;100009.88;10526956;28;20047;-61
2021/06/22 15:29:38;;;;;;;3.58;3.10;;;;;;;20.53;67.69;100017.53;10526515;28;20176;-61
2021/06/22 15:34:39;;;;;;;3.38;2.60;;;;;;;20.80;66.80;99999.69;10507458;28;20066;-62
2021/06/22 15:39:41;;;;;;;4.18;2.80;;;;;;;20.86;66.73;99992.66;10523680;28;20385;-62
2021/06/22 15:44:43;;;;;;;3.72;2.90;;;;;;;20.79;67.93;99995.31;10516430;28;20070;-61
2021/06/22 15:49:45;;;;;;;3.20;2.90;;;;;;;20.98;67.26;99996.47;10505973;28;20130;-62
2021/06/22 15:54:46;;;;;;;4.85;2.88;;;;;;;21.08;66.45;100001.53;10529388;28;20463;-61
2021/06/22 15:59:48;;;;;;;4.18;2.90;;;;;;;20.80;66.86;100010.50;10531719;28;20048;-61
2021/06/22 16:04:50;;;;;;;5.30;3.85;;;;;;;21.10;65.54;100009.47;10513279;28;20039;-62
2021/06/22 16:09:51;;;;;;;3.33;3.03;;;;;;;20.71;65.58;100000.88;10531530;28;20040;-63
2021/06/22 16:14:53;;;;;;;3.47;2.90;;;;;;;20.71;66.79;100000.88;10521901;28;20492;-61
2021/06/22 16:19:55;;;;;;;3.85;2.58;;;;;;;20.86;66.33;100002.66;10521991;28;20503;-61
2021/06/22 16:24:56;;;;;;;6.10;3.00;;;;;;;21.04;64.96;100030.03;10541616;28;20044;-62
2021/06/22 16:29:58;;;;;;;3.67;2.97;;;;;;;21.13;64.53;100031.53;10539439;28;20048;-61
2021/06/22 16:34:59;;;;;;;4.43;3.05;;;;;;;21.21;63.52;100040.53;10538691;28;20043;-61
2021/06/22 16:40:04;;;;;;;3.63;2.53;;;;;;;21.04;64.41;100038.16;10538953;28;20058;-61
2021/06/22 16:45:07;;;;;;;3.47;2.65;;;;;;;20.96;64.98;100041.00;10537377;28;20035;-61
2021/06/22 16:50:10;;;;;;;6.00;2.95;;;;;;;21.02;64.74;100056.47;10539685;28;20705;-61
2021/06/22 16:55:18;;;;;;;5.28;3.25;;;;;;;21.04;64.05;100051.69;10538260;28;20082;-61
2021/06/22 17:00:26;;;;;;;4.53;2.42;;;;;;;20.75;64.96;100031.91;10537787;28;20051;-61
2021/06/22 17:05:28;;;;;;;5.15;2.78;;;;;;;20.65;65.29;100066.50;10537040;28;20818;-61
2021/06/22 17:10:31;;;;;;;3.35;3.05;;;;;;;20.62;65.38;100066.91;10536185;28;20066;-64
2021/06/22 17:15:36;;;;;;;4.70;3.10;;;;;;;20.66;66.07;100065.53;10536171;28;20047;-62
2021/06/22 17:20:37;;;;;;;4.70;4.00;;;;;;;20.72;65.77;100055.81;10484019;27;20389;-62
2021/06/22 17:25:39;;;;;;;3.53;3.15;;;;;;;20.63;64.49;100068.59;10528284;28;20256;-60
2021/06/22 17:30:41;;;;;;;5.65;3.85;;;;;;;20.61;65.34;100070.63;10526951;28;20074;-59
2021/06/22 17:35:43;;;;;;;5.55;3.15;;;;;;;20.65;64.25;100063.81;10529795;28;20093;-59
2021/06/22 17:40:47;;;;;;;4.78;3.42;;;;;;;20.75;63.82;100034.59;10529924;28;20054;-57
2021/06/22 17:45:48;;;;;;;4.15;3.03;;;;;;;20.66;64.20;100024.97;10529173;28;20055;-59
2021/06/22 17:50:50;;;;;;;4.45;2.90;;;;;;;20.76;63.63;100040.84;10512624;28;20715;-58
2021/06/22 17:55:52;;;;;;;3.80;3.17;;;;;;;20.70;64.70;100026.22;10531632;28;20047;-61
2021/06/22 18:00:53;;;;;;;4.93;3.13;;;;;;;20.61;65.26;100038.19;10535295;28;20456;-61
2021/06/22 18:05:55;;;;;;;4.75;3.08;;;;;;;20.43;65.60;100042.19;10535867;28;20052;-61
2021/06/22 18:10:56;;;;;;;5.50;3.60;;;;;;;20.32;66.57;100037.28;10531957;28;20122;-61
2021/06/22 18:15:58;;;;;;;3.58;3.17;;;;;;;20.31;66.52;100038.31;10532221;28;20077;-62
2021/06/22 18:21:00;;;;;;;5.85;3.15;;;;;;;20.38;66.18;100039.22;10532250;28;20063;-62
2021/06/22 18:26:01;;;;;;;4.93;2.53;;;;;;;20.42;65.45;100037.81;10529731;28;20059;-62
2021/06/22 18:31:03;;;;;;;5.03;3.25;;;;;;;20.27;65.61;100061.38;10531369;28;20051;-62
2021/06/22 18:36:06;;;;;;;4.45;3.67;;;;;;;20.25;65.84;100076.91;10512715;28;20509;-64
2021/06/22 18:41:08;;;;;;;3.40;3.10;;;;;;;19.82;67.03;100058.78;10534603;28;20562;-61
2021/06/22 18:46:09;;;;;;;5.88;3.58;;;;;;;20.05;66.92;100065.91;10533350;27;20048;-62
2021/06/22 18:51:11;;;;;;;3.83;3.45;;;;;;;20.01;66.88;100073.56;10533720;28;20066;-63
2021/06/22 18:56:12;;;;;;;5.53;3.70;;;;;;;20.05;67.34;100072.13;10509599;28;20565;-62
2021/06/22 19:01:14;;;;;;;4.97;3.97;;;;;;;19.75;67.64;100090.22;10525620;28;20137;-62
2021/06/22 19:06:16;;;;;;;4.65;3.75;;;;;;;19.86;67.77;100113.25;10525249;28;20608;-62
2021/06/22 19:11:17;;;;;;;4.78;3.58;;;;;;;19.90;67.80;100109.16;10525696;28;20051;-62
2021/06/22 19:16:19;;;;;;;5.03;3.90;;;;;;;19.88;68.53;100127.41;10525202;28;20054;-62
2021/06/22 19:21:21;;;;;;;6.03;3.70;;;;;;;19.87;68.63;100123.03;10524112;28;20047;-64
2021/06/22 19:26:23;;;;;;;3.60;3.30;;;;;;;19.82;68.47;100118.19;10504705;28;20050;-63
2021/06/22 19:31:24;;;;;;;7.80;4.45;;;;;;;19.79;68.09;100113.16;10522807;28;20058;-62
2021/06/22 19:36:26;;;;;;;5.68;3.40;;;;;;;19.54;68.39;100112.56;10524130;28;20149;-61
2021/06/22 19:41:28;;;;;;;4.75;3.55;;;;;;;19.46;68.49;100118.91;10523859;28;20082;-63
2021/06/22 19:46:29;;;;;;;5.80;3.92;;;;;;;19.33;69.02;100130.31;10521833;28;20039;-60
2021/06/22 19:51:31;;;;;;;6.75;4.68;;;;;;;19.22;69.75;100141.56;10520392;28;21950;-60
2021/06/22 19:56:33;;;;;;;5.05;3.60;;;;;;;19.26;69.75;100148.28;10520366;28;20055;-60
2021/06/22 20:01:35;;;;;;;6.45;4.22;;;;;;;19.20;69.80;100146.28;10520903;28;20052;-60
2021/06/22 20:06:37;;;;;;;5.68;3.88;;;;;;;18.66;71.36;100150.75;10520163;28;20516;-63
2021/06/22 20:11:38;;;;;;;4.60;4.00;;;;;;;18.53;71.56;100167.50;10519075;28;20059;-59
2021/06/22 20:16:40;;;;;;;4.20;3.80;;;;;;;18.27;73.84;100165.13;10519442;28;20054;-61
2021/06/22 20:21:42;;;;;;;6.13;4.07;;;;;;;18.58;72.72;100169.66;10502582;28;20601;-53
2021/06/22 20:26:46;;;;;;;7.15;4.53;;;;;;;18.78;71.97;100171.88;10523312;28;20063;-54
2021/06/22 20:31:49;;;;;;;6.30;4.25;;;;;;;18.88;71.34;100172.53;10520435;28;20063;-51
2021/06/22 20:36:51;;;;;;;4.33;3.67;;;;;;;18.92;71.11;100187.34;10520720;28;20056;-51
2021/06/22 20:41:52;;;;;;;5.50;4.15;;;;;;;18.69;71.32;100185.44;10518495;28;20040;-54
2021/06/22 20:46:54;;;;;;;7.22;4.35;;;;;;;18.73;71.22;100180.50;10521526;28;20066;-53
2021/06/22 20:51:56;;;;;;;4.90;4.47;;;;;;;18.58;71.18;100179.59;10522677;28;20040;-53
2021/06/22 20:56:57;;;;;;;4.25;3.85;;;;;;;18.85;70.57;100167.47;10523167;28;20047;-63
2021/06/22 21:01:59;;;;;;;6.00;4.45;;;;;;;18.72;71.07;100158.13;10528415;28;20054;-62
2021/06/22 21:07:01;;;;;;;6.45;4.47;;;;;;;18.36;72.22;100174.84;10525834;28;20098;-59
2021/06/22 21:12:02;;;;;;;7.57;4.10;;;;;;;18.48;71.92;100169.91;10530195;28;20138;-60
2021/06/22 21:17:04;;;;;;;7.07;4.15;;;;;;;18.26;72.45;100174.22;10526714;28;20472;-61
2021/06/22 21:22:06;;;;;;;8.48;5.57;;;;;;;18.40;71.60;100174.50;10525328;28;20056;-61
2021/06/22 21:27:08;;;;;;;6.40;4.55;;;;;;;18.25;71.69;100167.13;10524112;28;21713;-59
2021/06/22 21:32:09;;;;;;;6.35;4.18;;;;;;;18.34;71.59;100184.94;10527573;28;20059;-59
2021/06/22 21:37:11;;;;;;;4.35;3.95;;;;;;;18.27;71.60;100184.00;10530148;28;20055;-61
2021/06/22 21:42:13;;;;;;;6.90;4.95;;;;;;;18.27;71.61;100183.13;10522060;28;20079;-60
2021/06/22 21:47:14;;;;;;;5.72;4.20;;;;;;;18.26;70.90;100171.53;10518637;28;20047;-60
2021/06/22 21:52:16;;;;;;;9.82;5.57;;;;;;;18.11;71.74;100175.97;10536301;28;20074;-61
2021/06/22 21:57:18;;;;;;;5.30;4.30;;;;;;;18.14;71.36;100186.41;10534059;28;20559;-60
2021/06/22 22:02:19;;;;;;;5.00;4.32;;;;;;;18.07;71.64;100196.19;10544204;28;20051;-61
2021/06/22 22:07:21;;;;;;;5.47;3.85;;;;;;;18.01;70.99;100189.63;10543631;28;20044;-61
2021/06/22 22:12:22;;;;;;;5.95;4.25;;;;;;;17.99;71.40;100195.19;10527380;28;20052;-64
2021/06/22 22:17:24;;;;;;;7.43;5.20;;;;;;;17.83;71.33;100195.22;10541791;28;20057;-61
2021/06/22 22:22:25;;;;;;;7.43;4.93;;;;;;;17.72;71.67;100196.41;10548340;28;20055;-60
2021/06/22 22:27:27;;;;;;;6.60;4.80;;;;;;;17.70;72.21;100206.53;10542888;28;20055;-60
2021/06/22 22:32:29;;;;;;;9.82;5.10;;;;;;;17.42;72.50;100214.13;10552324;28;20062;-60
2021/06/22 22:37:30;;;;;;;6.95;4.90;;;;;;;17.13;74.29;100220.84;10534314;28;20040;-61
2021/06/22 22:42:32;;;;;;;6.30;4.85;;;;;;;16.94;75.06;100217.44;10536966;28;20067;-60
2021/06/22 22:47:34;;;;;;;6.45;4.53;;;;;;;17.17;73.85;100221.34;10522103;28;20079;-61
2021/06/22 22:52:37;;;;;;;7.32;5.85;;;;;;;17.33;73.30;100209.75;10535535;28;20056;-60
2021/06/22 22:57:39;;;;;;;6.65;4.53;;;;;;;17.09;74.16;100214.13;10529201;28;20795;-61
2021/06/22 23:02:40;;;;;;;8.52;5.00;;;;;;;17.25;73.55;100214.13;10532528;28;20048;-60
2021/06/22 23:07:42;;;;;;;7.00;5.13;;;;;;;17.23;72.58;100205.38;10530508;28;20413;-61
2021/06/22 23:12:44;;;;;;;7.97;5.38;;;;;;;16.94;74.10;100211.25;10512721;28;20047;-61
2021/06/22 23:17:45;;;;;;;6.43;5.53;;;;;;;16.63;74.88;100222.56;10537262;28;20048;-61
2021/06/22 23:22:47;;;;;;;6.97;4.78;;;;;;;16.49;76.06;100226.72;10540481;28;20408;-61